createdAt,value
2023-09-05T00:02:18.609Z,3.08
2023-09-05T00:04:45.861Z,3.22
2023-09-05T00:07:13.114Z,3.10
2023-09-05T00:09:39.675Z,2.85
2023-09-05T00:12:07.954Z,3.20
2023-09-05T00:14:34.400Z,3.30
2023-09-05T00:17:00.956Z,3.45
2023-09-05T00:19:27.468Z,3.40
2023-09-05T00:21:53.900Z,3.63
2023-09-05T00:24:34.499Z,2.97
2023-09-05T00:29:34.946Z,3.38
2023-09-05T00:32:01.700Z,3.35
2023-09-05T00:34:29.439Z,4.13
2023-09-05T00:36:56.650Z,3.42
2023-09-05T00:39:23.131Z,3.70
2023-09-05T00:41:49.565Z,3.50
2023-09-05T00:44:16.140Z,3.45
2023-09-05T00:46:43.312Z,3.40
2023-09-05T00:49:11.768Z,3.03
2023-09-05T00:51:39.014Z,3.83
2023-09-05T00:54:07.282Z,2.83
2023-09-05T00:56:36.487Z,2.80
2023-09-05T00:59:04.576Z,3.38
2023-09-05T01:01:31.691Z,3.88
2023-09-05T01:03:58.726Z,3.85
2023-09-05T01:06:56.119Z,3.15
2023-09-05T01:09:38.043Z,4.30
2023-09-05T01:12:05.840Z,3.17
2023-09-05T01:14:32.580Z,2.92
2023-09-05T01:17:02.420Z,3.83
2023-09-05T01:19:30.947Z,3.58
2023-09-05T01:22:02.435Z,3.53
2023-09-05T01:24:28.901Z,3.55
2023-09-05T01:26:57.023Z,3.50
2023-09-05T01:29:30.948Z,3.30
2023-09-05T01:32:00.465Z,3.88
2023-09-05T01:34:26.885Z,3.17
2023-09-05T01:36:53.372Z,3.55
2023-09-05T01:39:20.530Z,3.70
2023-09-05T01:41:47.009Z,3.88
2023-09-05T01:44:13.492Z,3.70
2023-09-05T01:46:40.047Z,4.10
2023-09-05T01:49:06.889Z,3.45
2023-09-05T01:51:33.452Z,4.13
2023-09-05T01:53:59.918Z,3.80
2023-09-05T01:56:27.501Z,3.95
2023-09-05T01:58:53.931Z,3.53
2023-09-05T02:01:20.394Z,3.78
2023-09-05T02:03:47.145Z,3.35
2023-09-05T02:06:17.756Z,3.92
2023-09-05T02:08:44.281Z,4.22
2023-09-05T02:11:10.973Z,3.55
2023-09-05T02:13:37.661Z,3.75
2023-09-05T02:16:04.440Z,3.35
2023-09-05T02:18:30.944Z,3.85
2023-09-05T02:21:02.243Z,4.22
2023-09-05T02:23:29.247Z,3.85
2023-09-05T02:26:02.807Z,3.50
2023-09-05T02:28:29.794Z,4.05
2023-09-05T02:30:56.994Z,3.85
2023-09-05T02:33:24.186Z,3.95
2023-09-05T02:35:51.338Z,3.80
2023-09-05T02:38:17.792Z,3.80
2023-09-05T02:40:47.793Z,3.88
2023-09-05T02:43:14.984Z,3.60
2023-09-05T02:45:41.637Z,3.67
2023-09-05T02:48:08.739Z,3.78
2023-09-05T02:50:35.433Z,3.55
2023-09-05T02:53:01.949Z,3.40
2023-09-05T02:55:28.402Z,3.67
2023-09-05T02:57:54.937Z,4.07
2023-09-05T03:00:21.731Z,3.50
2023-09-05T03:02:50.581Z,3.38
2023-09-05T03:07:43.524Z,3.53
2023-09-05T03:10:10.179Z,3.45
2023-09-05T03:12:36.592Z,3.17
2023-09-05T03:15:03.253Z,3.05
2023-09-05T03:17:29.709Z,3.17
2023-09-05T03:19:56.141Z,3.60
2023-09-05T03:22:22.558Z,3.00
2023-09-05T03:24:49.085Z,3.17
2023-09-05T03:27:15.562Z,4.07
2023-09-05T03:29:42.005Z,3.90
2023-09-05T03:32:08.440Z,3.63
2023-09-05T03:34:35.702Z,4.07
2023-09-05T03:37:02.279Z,4.05
2023-09-05T03:39:28.715Z,4.18
2023-09-05T03:41:59.933Z,3.78
2023-09-05T03:44:26.368Z,3.67
2023-09-05T03:46:55.025Z,4.03
2023-09-05T03:49:21.496Z,3.97
2023-09-05T03:51:48.048Z,3.53
2023-09-05T03:54:14.728Z,3.67
2023-09-05T03:56:41.278Z,3.83
2023-09-05T03:59:07.732Z,3.90
2023-09-05T04:01:35.993Z,3.75
2023-09-05T04:04:02.551Z,3.70
2023-09-05T04:06:29.160Z,3.35
2023-09-05T04:08:55.624Z,3.55
2023-09-05T04:11:22.122Z,3.42
2023-09-05T04:13:49.414Z,3.22
2023-09-05T04:16:15.962Z,3.85
2023-09-05T04:18:42.642Z,3.50
2023-09-05T04:21:09.434Z,3.50
2023-09-05T04:23:35.902Z,3.60
2023-09-05T04:26:03.095Z,3.13
2023-09-05T04:28:31.247Z,3.00
2023-09-05T04:31:03.158Z,3.65
2023-09-05T04:33:39.581Z,3.55
2023-09-05T04:36:09.975Z,3.22
2023-09-05T04:38:37.495Z,3.55
2023-09-05T04:41:05.123Z,3.58
2023-09-05T04:43:31.670Z,3.58
2023-09-05T04:45:58.785Z,3.67
2023-09-05T04:48:26.252Z,3.30
2023-09-05T04:50:54.027Z,3.60
2023-09-05T04:53:21.802Z,3.97
2023-09-05T04:55:51.792Z,3.83
2023-09-05T04:58:18.285Z,3.75
2023-09-05T05:00:44.785Z,3.75
2023-09-05T05:03:11.480Z,3.25
2023-09-05T05:05:38.048Z,3.83
2023-09-05T05:08:04.870Z,3.75
2023-09-05T05:10:34.926Z,3.80
2023-09-05T05:13:01.427Z,3.38
2023-09-05T05:15:28.128Z,3.67
2023-09-05T05:17:54.707Z,3.72
2023-09-05T05:20:21.297Z,3.15
2023-09-05T05:22:47.739Z,3.33
2023-09-05T05:25:14.274Z,3.25
2023-09-05T05:27:41.850Z,3.10
2023-09-05T05:30:09.816Z,3.30
2023-09-05T05:32:36.228Z,3.08
2023-09-05T05:35:02.866Z,3.28
2023-09-05T05:37:30.447Z,3.03
2023-09-05T05:39:56.972Z,3.35
2023-09-05T05:42:23.463Z,2.72
2023-09-05T05:44:49.942Z,2.97
2023-09-05T05:47:16.404Z,2.92
2023-09-05T05:49:42.836Z,3.00
2023-09-05T05:52:11.768Z,3.20
2023-09-05T05:57:04.787Z,2.60
2023-09-05T05:59:31.301Z,2.83
2023-09-05T06:01:58.360Z,2.97
2023-09-05T06:04:25.736Z,2.83
2023-09-05T06:06:54.096Z,2.97
2023-09-05T06:09:20.848Z,2.92
2023-09-05T06:11:47.885Z,2.78
2023-09-05T06:14:15.837Z,2.90
2023-09-05T06:16:42.725Z,2.65
2023-09-05T06:19:09.774Z,2.72
2023-09-05T06:21:36.462Z,3.10
2023-09-05T06:24:02.970Z,3.00
2023-09-05T06:26:29.490Z,2.80
2023-09-05T06:28:55.920Z,2.92
2023-09-05T06:31:22.480Z,2.95
2023-09-05T06:33:48.982Z,2.95
2023-09-05T06:36:15.444Z,3.00
2023-09-05T06:38:42.901Z,3.00
2023-09-05T06:41:11.210Z,2.70
2023-09-05T06:43:38.554Z,2.67
2023-09-05T06:46:06.819Z,2.85
2023-09-05T06:48:35.821Z,3.20
2023-09-05T06:51:02.470Z,2.55
2023-09-05T06:53:29.940Z,2.75
2023-09-05T06:55:56.448Z,2.60
2023-09-05T06:58:24.838Z,2.42
2023-09-05T07:00:56.025Z,2.58
2023-09-05T07:03:26.704Z,2.60
2023-09-05T07:06:04.953Z,2.65
2023-09-05T07:08:33.216Z,2.63
2023-09-05T07:10:59.760Z,2.70
2023-09-05T07:13:26.611Z,2.50
2023-09-05T07:15:53.896Z,2.70
2023-09-05T07:18:20.675Z,2.45
2023-09-05T07:20:47.180Z,2.60
2023-09-05T07:23:13.608Z,2.45
2023-09-05T07:25:40.484Z,2.72
2023-09-05T07:28:07.689Z,2.20
2023-09-05T07:30:34.564Z,1.83
2023-09-05T07:33:01.295Z,2.50
2023-09-05T07:35:27.750Z,1.98
2023-09-05T07:37:54.260Z,2.05
2023-09-05T07:40:23.618Z,2.00
2023-09-05T07:42:51.607Z,2.22
2023-09-05T07:45:18.193Z,1.80
2023-09-05T07:47:45.441Z,1.60
2023-09-05T07:50:12.166Z,1.65
2023-09-05T07:52:38.886Z,1.52
2023-09-05T07:55:06.001Z,1.52
2023-09-05T07:57:32.637Z,1.52
2023-09-05T07:59:59.175Z,1.70
2023-09-05T08:02:25.643Z,1.50
2023-09-05T08:04:52.130Z,1.75
2023-09-05T08:07:18.732Z,1.60
2023-09-05T08:09:45.742Z,1.30
2023-09-05T08:12:12.299Z,1.60
2023-09-05T08:14:39.017Z,1.88
2023-09-05T08:17:05.455Z,1.50
2023-09-05T08:19:32.798Z,1.67
2023-09-05T08:21:59.364Z,1.83
2023-09-05T08:24:25.860Z,1.63
2023-09-05T08:26:52.357Z,1.90
2023-09-05T08:29:20.065Z,1.40
2023-09-05T08:31:46.654Z,2.03
2023-09-05T08:34:13.172Z,1.50
2023-09-05T08:36:39.642Z,1.50
2023-09-05T08:39:06.214Z,1.30
2023-09-05T08:41:32.861Z,1.67
2023-09-05T08:44:00.098Z,1.42
2023-09-05T08:46:29.469Z,1.50
2023-09-05T08:48:56.738Z,1.65
2023-09-05T08:51:31.478Z,1.95
2023-09-05T08:56:27.482Z,1.80
2023-09-05T08:58:58.028Z,1.70
2023-09-05T09:01:26.999Z,1.88
2023-09-05T09:03:58.412Z,1.52
2023-09-05T09:06:27.745Z,1.85
2023-09-05T09:08:55.263Z,1.60
2023-09-05T09:11:23.594Z,1.90
2023-09-05T09:13:57.874Z,1.80
2023-09-05T09:16:24.544Z,2.13
2023-09-05T09:19:01.158Z,1.90
2023-09-05T09:21:29.978Z,2.47
2023-09-05T09:24:09.065Z,2.00
2023-09-05T09:26:39.799Z,1.80
2023-09-05T09:29:10.332Z,2.00
2023-09-05T09:31:38.834Z,2.17
2023-09-05T09:34:07.439Z,1.70
2023-09-05T09:36:35.798Z,1.95
2023-09-05T09:39:12.064Z,2.03
2023-09-05T09:41:48.974Z,2.20
2023-09-05T09:44:26.970Z,2.13
2023-09-05T09:46:55.272Z,1.75
2023-09-05T09:49:24.357Z,1.58
2023-09-05T09:51:57.341Z,2.00
2023-09-05T09:54:36.165Z,1.80
2023-09-05T09:57:05.392Z,1.90
2023-09-05T09:59:37.196Z,1.90
2023-09-05T10:02:14.940Z,2.15
2023-09-05T10:04:43.623Z,1.60
2023-09-05T10:07:17.740Z,2.13
2023-09-05T10:09:49.150Z,1.60
2023-09-05T10:12:20.282Z,1.63
2023-09-05T10:14:48.808Z,1.63
2023-09-05T10:19:45.254Z,1.58
2023-09-05T10:22:17.764Z,1.70
2023-09-05T10:24:44.839Z,1.80
2023-09-05T10:27:12.166Z,1.70
2023-09-05T10:29:43.388Z,1.50
2023-09-05T10:32:23.172Z,2.10
2023-09-05T10:34:49.735Z,1.98
2023-09-05T10:37:19.352Z,1.80
2023-09-05T10:39:47.681Z,2.60
2023-09-05T10:42:15.009Z,1.88
2023-09-05T10:44:51.415Z,1.83
2023-09-05T10:47:29.508Z,2.10
2023-09-05T10:50:06.654Z,1.60
2023-09-05T10:52:33.660Z,1.60
2023-09-05T10:55:33.150Z,1.70
2023-09-05T10:58:00.301Z,1.55
2023-09-05T11:00:30.895Z,1.95
2023-09-05T11:03:15.590Z,1.70
2023-09-05T11:05:43.632Z,1.73
2023-09-05T11:08:24.076Z,2.00
2023-09-05T11:10:56.495Z,1.73
2023-09-05T11:13:23.217Z,1.80
2023-09-05T11:15:58.928Z,1.80
2023-09-05T11:18:25.471Z,1.67
2023-09-05T11:20:51.941Z,1.52
2023-09-05T11:23:28.986Z,1.52
2023-09-05T11:25:57.831Z,1.45
2023-09-05T11:28:25.221Z,1.48
2023-09-05T11:31:04.236Z,1.40
2023-09-05T11:33:31.233Z,1.65
2023-09-05T11:35:58.722Z,1.38
2023-09-05T11:38:27.054Z,1.40
2023-09-05T11:40:56.617Z,1.73
2023-09-05T11:43:23.868Z,1.48
2023-09-05T11:45:56.108Z,1.40
2023-09-05T11:48:24.453Z,1.50
2023-09-05T11:50:52.069Z,1.70
2023-09-05T11:53:20.590Z,1.45
2023-09-05T11:55:48.576Z,1.40
2023-09-05T11:58:17.847Z,1.48
2023-09-05T12:00:46.058Z,1.52
2023-09-05T12:03:16.346Z,1.60
2023-09-05T12:05:44.158Z,2.90
2023-09-05T12:08:29.639Z,1.60
2023-09-05T12:10:58.476Z,1.77
2023-09-05T12:13:40.985Z,1.52
2023-09-05T12:16:09.535Z,1.30
2023-09-05T12:18:36.287Z,1.52
2023-09-05T12:21:02.776Z,1.52
2023-09-05T12:23:30.508Z,1.42
2023-09-05T12:25:58.413Z,1.90
2023-09-05T12:28:26.908Z,1.33
2023-09-05T12:31:06.723Z,1.42
2023-09-05T12:33:33.960Z,1.38
2023-09-05T12:36:00.581Z,1.42
2023-09-05T12:38:30.675Z,1.55
2023-09-05T12:41:00.734Z,1.73
2023-09-05T12:43:27.231Z,1.33
2023-09-05T12:45:54.765Z,1.45
2023-09-05T12:48:21.281Z,1.33
2023-09-05T12:50:50.241Z,1.77
2023-09-05T12:53:20.761Z,1.52
2023-09-05T12:55:49.898Z,1.33
2023-09-05T12:58:16.450Z,1.70
2023-09-05T13:00:43.463Z,1.48
2023-09-05T13:03:12.247Z,1.52
2023-09-05T13:05:40.319Z,1.10
2023-09-05T13:08:06.854Z,1.50
2023-09-05T13:10:33.432Z,1.75
2023-09-05T13:13:02.746Z,1.20
2023-09-05T13:15:31.975Z,1.33
2023-09-05T13:17:58.843Z,1.50
2023-09-05T13:20:25.578Z,1.48
2023-09-05T13:22:52.508Z,1.20
2023-09-05T13:25:20.902Z,1.25
2023-09-05T13:27:48.548Z,1.35
2023-09-05T13:30:16.145Z,1.55
2023-09-05T13:32:42.806Z,2.05
2023-09-05T13:35:10.840Z,1.58
2023-09-05T13:40:05.050Z,1.17
2023-09-05T13:42:31.844Z,1.45
2023-09-05T13:44:58.358Z,1.48
2023-09-05T13:47:25.047Z,1.55
2023-09-05T13:49:51.467Z,1.35
2023-09-05T13:52:17.930Z,1.60
2023-09-05T13:54:46.415Z,1.52
2023-09-05T13:57:13.668Z,1.00
2023-09-05T13:59:40.369Z,1.33
2023-09-05T14:02:07.164Z,1.10
2023-09-05T14:04:33.734Z,1.33
2023-09-05T14:07:01.398Z,1.30
2023-09-05T14:09:27.881Z,1.30
2023-09-05T14:11:54.403Z,1.30
2023-09-05T14:14:20.828Z,1.20
2023-09-05T14:16:56.052Z,1.20
2023-09-05T14:19:24.095Z,1.10
2023-09-05T14:21:50.860Z,0.90
2023-09-05T14:24:17.424Z,1.10
2023-09-05T14:26:43.869Z,1.00
2023-09-05T14:29:10.395Z,1.17
2023-09-05T14:31:36.961Z,1.17
2023-09-05T14:34:03.695Z,1.20
2023-09-05T14:36:30.264Z,0.98
2023-09-05T14:38:57.792Z,1.55
2023-09-05T14:41:31.918Z,1.13
2023-09-05T14:44:00.879Z,1.23
2023-09-05T14:46:27.568Z,1.10
2023-09-05T14:48:54.262Z,1.23
2023-09-05T14:51:20.761Z,0.90
2023-09-05T14:53:48.154Z,1.00
2023-09-05T14:58:41.691Z,1.30
2023-09-05T15:01:08.177Z,1.20
2023-09-05T15:03:34.911Z,1.13
2023-09-05T15:06:01.411Z,1.02
2023-09-05T15:08:28.121Z,1.30
2023-09-05T15:10:54.723Z,1.05
2023-09-05T15:13:21.173Z,1.00
2023-09-05T15:15:49.844Z,1.10
2023-09-05T15:18:16.838Z,1.13
2023-09-05T15:20:43.409Z,0.85
2023-09-05T15:23:09.892Z,0.90
2023-09-05T15:25:37.475Z,0.93
2023-09-05T15:28:04.206Z,1.10
2023-09-05T15:30:35.025Z,1.27
2023-09-05T15:33:01.586Z,0.90
2023-09-05T15:35:28.493Z,1.08
2023-09-05T15:37:55.016Z,1.02
2023-09-05T15:40:22.115Z,1.05
2023-09-05T15:42:48.559Z,1.00
2023-09-05T15:45:15.109Z,1.02
2023-09-05T15:47:42.210Z,0.93
2023-09-05T15:50:09.309Z,0.80
2023-09-05T15:52:35.772Z,0.95
2023-09-05T15:55:02.270Z,1.00
2023-09-05T15:57:28.895Z,1.02
2023-09-05T15:59:58.266Z,0.98
2023-09-05T16:02:24.899Z,1.20
2023-09-05T16:04:51.362Z,0.80
2023-09-05T16:07:17.840Z,1.02
2023-09-05T16:09:44.691Z,1.15
2023-09-05T16:12:11.443Z,0.90
2023-09-05T16:14:41.800Z,1.10
2023-09-05T16:17:08.892Z,1.20
2023-09-05T16:19:37.212Z,1.00
2023-09-05T16:22:03.955Z,1.20
2023-09-05T16:24:30.556Z,1.30
2023-09-05T16:26:59.199Z,1.23
2023-09-05T16:29:25.817Z,1.23
2023-09-05T16:31:52.474Z,1.05
2023-09-05T16:34:18.952Z,1.50
2023-09-05T16:36:45.413Z,1.30
2023-09-05T16:39:11.984Z,1.10
2023-09-05T16:41:38.569Z,1.33
2023-09-05T16:44:05.583Z,1.17
2023-09-05T16:46:32.344Z,1.27
2023-09-05T16:48:59.039Z,1.42
2023-09-05T16:51:26.255Z,1.40
2023-09-05T16:53:52.845Z,1.13
2023-09-05T16:56:19.761Z,1.17
2023-09-05T16:58:46.367Z,1.35
2023-09-05T17:01:13.345Z,1.10
2023-09-05T17:03:39.943Z,1.33
2023-09-05T17:06:06.472Z,0.95
2023-09-05T17:08:33.297Z,1.15
2023-09-05T17:11:00.343Z,1.85
2023-09-05T17:13:27.191Z,1.38
2023-09-05T17:15:54.008Z,1.42
2023-09-05T17:18:20.982Z,1.40
2023-09-05T17:20:51.614Z,1.52
2023-09-05T17:23:22.938Z,0.90
2023-09-05T17:25:50.394Z,1.38
2023-09-05T17:28:20.097Z,1.13
2023-09-05T17:30:47.111Z,1.25
2023-09-05T17:33:13.965Z,1.30
2023-09-05T17:35:41.921Z,1.65
2023-09-05T17:38:08.651Z,1.13
2023-09-05T17:40:38.124Z,1.48
2023-09-05T17:43:04.886Z,1.38
2023-09-05T17:45:31.488Z,1.15
2023-09-05T17:47:57.956Z,1.17
2023-09-05T17:50:24.595Z,1.02
2023-09-05T17:52:51.265Z,1.23
2023-09-05T17:55:18.135Z,1.10
2023-09-05T17:57:45.731Z,0.93
2023-09-05T18:00:13.992Z,1.20
2023-09-05T18:02:40.552Z,0.80
